createdAt,value
2018-08-17T00:02:21.285Z,16.80
2018-08-17T00:05:05.426Z,16.80
2018-08-17T00:07:34.685Z,16.80
2018-08-17T00:10:04.106Z,16.80
2018-08-17T00:12:33.356Z,16.80
2018-08-17T00:15:02.706Z,16.80
2018-08-17T00:17:32.226Z,16.80
2018-08-17T00:20:01.867Z,16.80
2018-08-17T00:22:31.166Z,16.70
2018-08-17T00:25:01.089Z,16.70
2018-08-17T00:27:30.501Z,16.70
2018-08-17T00:30:00.210Z,16.60
2018-08-17T00:32:29.870Z,16.50
2018-08-17T00:34:59.329Z,16.50
2018-08-17T00:37:28.928Z,16.40
2018-08-17T00:39:58.430Z,16.30
2018-08-17T00:42:28.552Z,16.30
2018-08-17T00:44:58.129Z,16.20
2018-08-17T00:47:27.752Z,16.10
2018-08-17T00:49:57.190Z,16.10
2018-08-17T00:52:26.816Z,16.10
2018-08-17T00:54:56.230Z,16.10
2018-08-17T00:57:26.029Z,16.10
2018-08-17T00:59:55.541Z,16.10
2018-08-17T01:02:25.089Z,16.10
2018-08-17T01:04:54.610Z,16.10
2018-08-17T01:07:24.173Z,16.00
2018-08-17T01:09:53.777Z,16.00
2018-08-17T01:12:23.256Z,16.00
2018-08-17T01:14:53.389Z,16.10
2018-08-17T01:17:23.372Z,16.10
2018-08-17T01:19:53.329Z,16.20
2018-08-17T01:22:22.789Z,16.20
2018-08-17T01:24:52.369Z,16.20
2018-08-17T01:27:22.029Z,16.20
2018-08-17T01:29:51.989Z,16.20
2018-08-17T01:32:21.650Z,16.20
2018-08-17T01:34:51.449Z,16.20
2018-08-17T01:37:21.366Z,16.20
2018-08-17T01:39:51.369Z,16.10
2018-08-17T01:42:20.929Z,16.10
2018-08-17T01:44:50.709Z,16.00
2018-08-17T01:47:20.669Z,16.00
2018-08-17T01:49:50.209Z,15.90
2018-08-17T01:52:19.809Z,15.90
2018-08-17T01:54:49.610Z,15.80
2018-08-17T01:57:19.829Z,15.80
2018-08-17T01:59:49.289Z,15.80
2018-08-17T02:02:19.249Z,15.70
2018-08-17T02:04:49.009Z,15.80
2018-08-17T02:07:18.550Z,15.80
2018-08-17T02:09:48.089Z,15.80
2018-08-17T02:12:17.609Z,15.70
2018-08-17T02:14:47.136Z,15.70
2018-08-17T02:17:16.709Z,15.60
2018-08-17T02:19:46.289Z,15.60
2018-08-17T02:22:15.769Z,15.50
2018-08-17T02:24:45.481Z,15.50
2018-08-17T02:27:15.308Z,15.40
2018-08-17T02:29:44.769Z,15.40
2018-08-17T02:32:14.289Z,15.40
2018-08-17T02:34:43.829Z,15.30
2018-08-17T02:37:13.309Z,15.20
2018-08-17T02:39:42.848Z,15.20
2018-08-17T02:42:12.406Z,15.20
2018-08-17T02:44:41.849Z,15.20
2018-08-17T02:47:11.308Z,15.10
2018-08-17T02:49:41.068Z,15.10
2018-08-17T02:52:10.749Z,15.10
2018-08-17T02:54:40.249Z,15.10
2018-08-17T02:57:09.886Z,15.00
2018-08-17T02:59:39.419Z,14.90
2018-08-17T03:02:08.968Z,14.90
2018-08-17T03:04:38.449Z,14.80
2018-08-17T03:07:07.789Z,14.80
2018-08-17T03:09:37.469Z,14.70
2018-08-17T03:12:07.309Z,14.70
2018-08-17T03:14:36.769Z,14.70
2018-08-17T03:17:06.469Z,14.70
2018-08-17T03:19:36.049Z,14.70
2018-08-17T03:22:06.276Z,14.80
2018-08-17T03:24:35.669Z,14.80
2018-08-17T03:27:05.729Z,14.80
2018-08-17T03:29:35.791Z,14.70
2018-08-17T03:32:05.609Z,14.70
2018-08-17T03:34:35.108Z,14.70
2018-08-17T03:37:04.751Z,14.70
2018-08-17T03:39:34.769Z,14.70
2018-08-17T03:42:04.309Z,14.60
2018-08-17T03:44:33.815Z,14.60
2018-08-17T03:47:03.489Z,14.60
2018-08-17T03:49:33.090Z,14.60
2018-08-17T03:52:03.389Z,14.60
2018-08-17T03:54:32.989Z,14.50
2018-08-17T03:57:02.629Z,14.50
2018-08-17T03:59:32.309Z,14.50
2018-08-17T04:02:01.849Z,14.40
2018-08-17T04:04:31.329Z,14.40
2018-08-17T04:07:00.829Z,14.40
2018-08-17T04:09:30.269Z,14.40
2018-08-17T04:12:00.129Z,14.40
2018-08-17T04:14:30.009Z,14.40
2018-08-17T04:16:59.569Z,14.40
2018-08-17T04:19:29.629Z,14.50
2018-08-17T04:21:59.150Z,14.50
2018-08-17T04:24:28.669Z,14.40
2018-08-17T04:26:58.025Z,14.40
2018-08-17T04:29:27.649Z,14.40
2018-08-17T04:31:57.129Z,14.70
2018-08-17T04:34:26.570Z,15.00
2018-08-17T04:36:56.189Z,15.30
2018-08-17T04:39:25.689Z,15.50
2018-08-17T04:41:55.289Z,15.60
2018-08-17T04:44:25.121Z,15.70
2018-08-17T04:46:54.709Z,15.80
2018-08-17T04:49:24.463Z,15.90
2018-08-17T04:51:54.309Z,16.10
2018-08-17T04:54:24.209Z,16.60
2018-08-17T04:56:54.269Z,17.20
2018-08-17T04:59:23.909Z,17.90
2018-08-17T05:01:53.369Z,18.80
2018-08-17T05:04:22.849Z,19.30
2018-08-17T05:06:52.389Z,19.80
2018-08-17T05:09:22.149Z,20.40
2018-08-17T05:11:52.249Z,20.70
2018-08-17T05:14:22.149Z,20.90
2018-08-17T05:16:51.949Z,20.90
2018-08-17T05:19:21.809Z,21.10
2018-08-17T05:21:51.352Z,21.40
2018-08-17T05:24:20.930Z,21.80
2018-08-17T05:26:50.729Z,22.10
2018-08-17T05:29:20.329Z,22.60
2018-08-17T05:31:49.889Z,22.70
2018-08-17T05:34:19.430Z,23.00
2018-08-17T05:36:49.269Z,23.20
2018-08-17T05:39:18.787Z,23.50
2018-08-17T05:41:48.349Z,23.80
2018-08-17T05:44:17.829Z,24.10
2018-08-17T05:46:53.770Z,24.40
2018-08-17T05:49:23.789Z,24.40
2018-08-17T05:51:53.412Z,24.50
2018-08-17T05:54:23.389Z,24.50
2018-08-17T05:56:52.997Z,24.50
2018-08-17T05:59:22.489Z,24.10
2018-08-17T06:01:52.150Z,23.70
2018-08-17T06:04:21.610Z,23.40
2018-08-17T06:06:51.210Z,22.90
2018-08-17T06:09:20.750Z,22.50
2018-08-17T06:11:50.411Z,22.10
2018-08-17T06:14:19.969Z,21.70
2018-08-17T06:16:49.489Z,21.60
2018-08-17T06:19:19.013Z,21.40
2018-08-17T06:21:48.611Z,21.40
2018-08-17T06:24:18.152Z,21.30
2018-08-17T06:26:48.009Z,21.30
2018-08-17T06:29:17.829Z,21.20
2018-08-17T06:31:47.546Z,21.20
2018-08-17T06:34:17.151Z,21.30
2018-08-17T06:36:46.571Z,21.40
2018-08-17T06:39:15.989Z,21.60
2018-08-17T06:41:45.529Z,21.70
2018-08-17T06:44:15.089Z,21.80
2018-08-17T06:46:44.741Z,22.00
2018-08-17T06:49:14.370Z,22.10
2018-08-17T06:51:51.168Z,22.30
2018-08-17T06:54:20.969Z,22.30
2018-08-17T06:56:50.669Z,22.50
2018-08-17T06:59:20.289Z,22.70
2018-08-17T07:01:50.129Z,22.80
2018-08-17T07:04:19.629Z,22.90
2018-08-17T07:06:49.479Z,23.10
2018-08-17T07:09:19.140Z,23.20
2018-08-17T07:11:48.668Z,23.30
2018-08-17T07:14:18.229Z,23.50
2018-08-17T07:16:47.849Z,23.50
2018-08-17T07:19:17.509Z,23.60
2018-08-17T07:21:47.649Z,23.70
2018-08-17T07:24:17.553Z,23.80
2018-08-17T07:26:47.308Z,23.90
2018-08-17T07:29:16.828Z,23.90
2018-08-17T07:31:46.329Z,23.90
2018-08-17T07:34:15.869Z,24.00
2018-08-17T07:36:45.849Z,24.10
2018-08-17T07:39:15.549Z,24.00
2018-08-17T07:41:45.410Z,23.90
2018-08-17T07:44:15.049Z,24.00
2018-08-17T07:46:44.789Z,23.90
2018-08-17T07:49:14.269Z,24.00
2018-08-17T07:51:43.749Z,24.10
2018-08-17T07:54:13.409Z,24.30
2018-08-17T07:56:42.989Z,24.50
2018-08-17T07:59:12.850Z,24.50
2018-08-17T08:01:42.396Z,24.50
2018-08-17T08:04:11.949Z,24.50
2018-08-17T08:06:41.650Z,24.60
2018-08-17T08:09:11.569Z,24.60
2018-08-17T08:11:41.849Z,24.70
2018-08-17T08:14:11.790Z,24.70
2018-08-17T08:16:41.380Z,24.60
2018-08-17T08:19:14.029Z,24.70
2018-08-17T08:21:48.850Z,24.70
2018-08-17T08:24:19.393Z,24.80
2018-08-17T08:26:49.235Z,24.80
2018-08-17T08:29:18.861Z,24.80
2018-08-17T08:31:48.290Z,24.90
2018-08-17T08:34:18.209Z,25.00
2018-08-17T08:36:47.890Z,25.20
2018-08-17T08:39:17.410Z,25.30
2018-08-17T08:41:46.869Z,25.50
2018-08-17T08:44:16.470Z,25.70
2018-08-17T08:46:46.590Z,25.80
2018-08-17T08:49:16.350Z,25.90
2018-08-17T08:51:45.909Z,26.00
2018-08-17T08:54:15.449Z,26.10
2018-08-17T08:56:45.370Z,26.30
2018-08-17T08:59:15.289Z,26.40
2018-08-17T09:01:44.961Z,26.50
2018-08-17T09:04:14.510Z,26.60
2018-08-17T09:06:44.128Z,26.70
2018-08-17T09:09:13.929Z,26.90
2018-08-17T09:11:43.589Z,27.00
2018-08-17T09:14:13.429Z,27.00
2018-08-17T09:16:43.056Z,27.10
2018-08-17T09:19:12.449Z,27.00
2018-08-17T09:21:42.052Z,27.10
2018-08-17T09:24:11.969Z,27.20
2018-08-17T09:26:41.839Z,27.20
2018-08-17T09:29:11.495Z,27.30
2018-08-17T09:31:41.189Z,27.10
2018-08-17T09:34:10.688Z,27.00
2018-08-17T09:36:40.370Z,27.10
2018-08-17T09:39:10.322Z,27.20
2018-08-17T09:41:39.911Z,27.40
2018-08-17T09:44:09.528Z,27.50
2018-08-17T09:46:39.423Z,27.60
2018-08-17T09:49:08.983Z,27.80
2018-08-17T09:51:38.423Z,27.90
2018-08-17T09:54:08.444Z,28.10
2018-08-17T09:56:38.484Z,28.10
2018-08-17T09:59:08.003Z,28.10
2018-08-17T10:01:43.064Z,28.00
2018-08-17T10:04:17.910Z,27.70
2018-08-17T10:06:53.104Z,27.70
2018-08-17T10:09:30.903Z,27.90
2018-08-17T10:12:00.523Z,27.90
2018-08-17T10:14:30.104Z,27.80
2018-08-17T10:17:00.144Z,27.90
2018-08-17T10:19:29.704Z,28.00
2018-08-17T10:21:59.569Z,28.10
2018-08-17T10:24:29.187Z,28.40
2018-08-17T10:26:58.944Z,28.60
2018-08-17T10:29:28.691Z,28.60
2018-08-17T10:31:58.383Z,28.80
2018-08-17T10:34:28.189Z,29.10
2018-08-17T10:36:57.764Z,29.20
2018-08-17T10:39:27.364Z,29.30
2018-08-17T10:41:56.943Z,29.40
2018-08-17T10:44:26.663Z,29.60
2018-08-17T10:46:56.705Z,29.70
2018-08-17T10:49:26.424Z,29.80
2018-08-17T10:51:57.784Z,29.60
2018-08-17T10:54:27.383Z,29.50
2018-08-17T10:56:56.943Z,29.20
2018-08-17T10:59:26.383Z,29.00
2018-08-17T11:01:56.223Z,28.90
2018-08-17T11:04:26.124Z,28.80
2018-08-17T11:06:55.983Z,28.60
2018-08-17T11:09:25.703Z,28.70
2018-08-17T11:11:55.353Z,28.90
2018-08-17T11:14:25.172Z,28.90
2018-08-17T11:16:55.235Z,28.80
2018-08-17T11:19:25.187Z,28.90
2018-08-17T11:21:54.824Z,29.00
2018-08-17T11:24:24.353Z,29.10
2018-08-17T11:26:53.944Z,29.20
2018-08-17T11:29:23.764Z,29.20
2018-08-17T11:31:54.164Z,29.30
2018-08-17T11:34:23.860Z,29.40
2018-08-17T11:36:53.639Z,29.70
2018-08-17T11:39:23.335Z,29.70
2018-08-17T11:41:52.976Z,29.60
2018-08-17T11:44:22.715Z,29.80
2018-08-17T11:46:52.401Z,29.90
2018-08-17T11:49:22.155Z,29.90
2018-08-17T11:51:51.795Z,29.80
2018-08-17T11:54:21.384Z,29.90
2018-08-17T11:56:50.958Z,29.90
2018-08-17T11:59:20.456Z,29.70
2018-08-17T12:01:50.037Z,29.80
2018-08-17T12:04:19.515Z,30.00
2018-08-17T12:06:49.175Z,30.30
2018-08-17T12:09:18.797Z,30.50
2018-08-17T12:11:48.395Z,30.60
2018-08-17T12:14:18.316Z,30.80
2018-08-17T12:16:48.136Z,30.90
2018-08-17T12:19:17.755Z,30.80
2018-08-17T12:21:47.495Z,30.90
2018-08-17T12:24:17.300Z,30.60
2018-08-17T12:26:53.547Z,30.70
2018-08-17T12:29:23.153Z,30.70
2018-08-17T12:31:52.695Z,30.90
2018-08-17T12:34:22.416Z,31.00
2018-08-17T12:36:51.975Z,31.10
2018-08-17T12:39:21.835Z,31.30
2018-08-17T12:41:51.475Z,31.30
2018-08-17T12:44:21.042Z,31.30
2018-08-17T12:46:50.635Z,31.30
2018-08-17T12:49:20.195Z,31.20
2018-08-17T12:51:49.816Z,31.20
2018-08-17T12:54:24.754Z,31.20
2018-08-17T12:56:54.335Z,31.40
2018-08-17T12:59:24.277Z,31.50
2018-08-17T13:01:54.274Z,31.60
2018-08-17T13:04:24.135Z,31.60
2018-08-17T13:06:53.896Z,31.60
2018-08-17T13:09:23.688Z,31.40
2018-08-17T13:11:59.376Z,31.40
2018-08-17T13:14:29.395Z,31.40
2018-08-17T13:16:59.815Z,31.50
2018-08-17T13:19:29.471Z,31.50
2018-08-17T13:21:59.176Z,31.40
2018-08-17T13:24:28.735Z,31.40
2018-08-17T13:26:58.276Z,31.40
2018-08-17T13:29:27.816Z,31.50
2018-08-17T13:31:57.355Z,31.40
2018-08-17T13:34:27.156Z,31.50
2018-08-17T13:36:57.055Z,31.50
2018-08-17T13:39:27.116Z,31.20
2018-08-17T13:41:56.715Z,31.10
2018-08-17T13:44:26.315Z,31.10
2018-08-17T13:46:55.876Z,31.10
2018-08-17T13:49:26.558Z,31.20
2018-08-17T13:51:56.356Z,31.40
2018-08-17T13:54:26.510Z,31.60
2018-08-17T13:56:56.075Z,31.70
2018-08-17T13:59:25.924Z,31.60
2018-08-17T14:01:55.914Z,31.70
2018-08-17T14:04:25.484Z,31.60
2018-08-17T14:06:55.585Z,31.60
2018-08-17T14:09:25.183Z,31.60
2018-08-17T14:11:54.740Z,31.60
2018-08-17T14:14:24.363Z,31.60
2018-08-17T14:16:54.043Z,31.60
2018-08-17T14:19:24.023Z,31.60
2018-08-17T14:21:54.045Z,31.70
2018-08-17T14:24:23.644Z,31.80
2018-08-17T14:26:53.763Z,31.70
2018-08-17T14:29:23.239Z,31.70
2018-08-17T14:31:52.903Z,31.90
2018-08-17T14:34:22.608Z,31.90
2018-08-17T14:36:52.204Z,31.90
2018-08-17T14:39:21.724Z,31.90
2018-08-17T14:42:00.103Z,32.00
2018-08-17T14:44:30.163Z,32.10
2018-08-17T14:46:59.783Z,32.10
2018-08-17T14:49:29.385Z,31.90
2018-08-17T14:51:59.079Z,31.80
2018-08-17T14:54:28.655Z,31.80
2018-08-17T14:56:58.436Z,31.80
2018-08-17T14:59:28.493Z,31.80
2018-08-17T15:01:58.078Z,31.90
2018-08-17T15:04:27.548Z,31.90
2018-08-17T15:10:09.614Z,32.00
2018-08-17T15:12:39.604Z,31.70
2018-08-17T15:15:10.763Z,31.70
2018-08-17T15:17:40.546Z,31.80
2018-08-17T15:20:11.719Z,31.80
2018-08-17T15:22:41.643Z,32.00
2018-08-17T15:25:11.155Z,31.90
2018-08-17T15:27:40.605Z,31.70
2018-08-17T15:30:11.703Z,31.80
2018-08-17T15:32:42.052Z,31.70
2018-08-17T15:35:11.833Z,31.70
2018-08-17T15:37:41.533Z,31.80
2018-08-17T15:40:12.313Z,31.80
2018-08-17T15:42:42.153Z,31.80
2018-08-17T15:45:11.553Z,31.80
2018-08-17T15:47:41.098Z,31.80
2018-08-17T15:50:17.353Z,31.80
2018-08-17T15:52:46.993Z,31.80
2018-08-17T15:55:16.693Z,31.80
2018-08-17T15:57:46.385Z,31.80
2018-08-17T16:00:18.737Z,31.90
2018-08-17T16:02:48.554Z,31.90
2018-08-17T16:05:18.193Z,31.90
2018-08-17T16:07:47.794Z,31.80
2018-08-17T16:10:17.625Z,31.80
2018-08-17T16:12:47.273Z,31.90
2018-08-17T16:15:16.933Z,31.90
2018-08-17T16:17:46.480Z,31.90
2018-08-17T16:20:16.092Z,31.90
2018-08-17T16:22:45.592Z,31.90
2018-08-17T16:25:15.253Z,31.90
2018-08-17T16:27:44.870Z,31.80
2018-08-17T16:30:15.571Z,31.80
2018-08-17T16:32:45.431Z,31.80
2018-08-17T16:35:15.011Z,31.70
2018-08-17T16:37:47.710Z,31.80
2018-08-17T16:40:17.351Z,31.60
2018-08-17T16:42:51.690Z,31.60
2018-08-17T16:45:21.386Z,31.60
2018-08-17T16:47:51.013Z,31.60
2018-08-17T16:50:20.506Z,31.60
2018-08-17T16:52:50.011Z,31.40
2018-08-17T16:55:19.565Z,31.30
2018-08-17T16:57:48.951Z,31.20
2018-08-17T17:00:18.493Z,31.20
2018-08-17T17:02:48.091Z,31.10
2018-08-17T17:05:17.836Z,31.00
2018-08-17T17:07:47.526Z,30.80
2018-08-17T17:10:17.571Z,30.60
2018-08-17T17:12:47.562Z,30.30
2018-08-17T17:15:19.986Z,30.10
2018-08-17T17:18:03.471Z,29.90
2018-08-17T17:20:36.331Z,29.70
2018-08-17T17:23:07.691Z,29.50
2018-08-17T17:25:37.442Z,29.50
2018-08-17T17:28:07.451Z,29.50
2018-08-17T17:30:43.951Z,29.50
2018-08-17T17:33:13.470Z,29.50
2018-08-17T17:35:43.993Z,29.60
2018-08-17T17:38:13.614Z,29.50
2018-08-17T17:40:43.413Z,29.40
2018-08-17T17:43:13.053Z,29.20
2018-08-17T17:45:42.922Z,28.90
2018-08-17T17:48:12.995Z,28.70
2018-08-17T17:50:42.833Z,28.40
2018-08-17T17:53:12.574Z,28.10
2018-08-17T17:55:47.433Z,27.70
2018-08-17T17:58:17.040Z,27.50
2018-08-17T18:00:57.933Z,27.10
2018-08-17T18:03:29.433Z,26.80
2018-08-17T18:06:07.633Z,26.60
2018-08-17T18:08:37.233Z,26.30
2018-08-17T18:11:07.013Z,26.00
2018-08-17T18:13:37.167Z,25.70
2018-08-17T18:16:06.774Z,25.50
2018-08-17T18:18:36.374Z,25.20
2018-08-17T18:21:06.034Z,25.00
2018-08-17T18:23:35.736Z,24.80
2018-08-17T18:26:15.354Z,24.50
2018-08-17T18:28:44.914Z,24.30
2018-08-17T18:31:14.673Z,24.10
2018-08-17T18:33:44.354Z,23.90
2018-08-17T18:36:14.015Z,23.70
2018-08-17T18:38:43.647Z,23.50
2018-08-17T18:41:13.222Z,23.30
2018-08-17T18:43:42.986Z,23.20
2018-08-17T18:46:12.634Z,23.00
2018-08-17T18:48:42.215Z,22.80
2018-08-17T18:51:11.814Z,22.80
2018-08-17T18:53:41.694Z,22.70
2018-08-17T18:56:11.274Z,22.70
2018-08-17T18:58:40.995Z,22.60
2018-08-17T19:01:10.546Z,22.40
2018-08-17T19:03:40.094Z,22.40
2018-08-17T19:06:09.935Z,22.20
2018-08-17T19:08:39.994Z,22.10
2018-08-17T19:11:09.556Z,22.00
2018-08-17T19:13:39.115Z,21.90
2018-08-17T19:16:08.789Z,21.80
2018-08-17T19:18:38.715Z,21.80
2018-08-17T19:21:12.914Z,21.80
2018-08-17T19:23:42.657Z,21.70
2018-08-17T19:26:12.334Z,21.60
2018-08-17T19:28:41.938Z,21.50
2018-08-17T19:31:11.654Z,21.40
2018-08-17T19:33:41.416Z,21.30
2018-08-17T19:36:11.135Z,21.20
2018-08-17T19:38:42.683Z,21.10
2018-08-17T19:41:12.294Z,21.00
2018-08-17T19:43:42.034Z,20.90
2018-08-17T19:46:11.708Z,20.90
2018-08-17T19:48:41.335Z,20.80
2018-08-17T19:51:17.097Z,20.70
2018-08-17T19:53:47.412Z,20.60
2018-08-17T19:56:17.556Z,20.50
2018-08-17T19:58:47.155Z,20.50
2018-08-17T20:01:16.574Z,20.40
2018-08-17T20:03:46.186Z,20.30
2018-08-17T20:06:15.858Z,20.30
2018-08-17T20:08:45.575Z,20.30
2018-08-17T20:11:15.236Z,20.20
2018-08-17T20:13:44.832Z,20.20
2018-08-17T20:16:30.214Z,20.20
2018-08-17T20:19:00.795Z,20.20
2018-08-17T20:21:30.454Z,20.10
2018-08-17T20:24:00.007Z,20.10
2018-08-17T20:26:29.953Z,20.10
2018-08-17T20:28:59.534Z,20.00
2018-08-17T20:31:29.376Z,20.00
2018-08-17T20:33:59.080Z,19.90
2018-08-17T20:36:28.767Z,19.90
2018-08-17T20:38:58.295Z,19.80
2018-08-17T20:41:28.295Z,19.80
2018-08-17T20:43:58.454Z,19.80
2018-08-17T20:46:27.994Z,19.70
2018-08-17T20:48:57.595Z,19.60
2018-08-17T20:51:27.116Z,19.60
2018-08-17T20:54:00.419Z,19.60
2018-08-17T20:56:29.935Z,19.50
2018-08-17T20:58:59.835Z,19.50
2018-08-17T21:01:29.523Z,19.40
2018-08-17T21:03:59.197Z,19.40
2018-08-17T21:06:28.677Z,19.30
2018-08-17T21:08:59.254Z,19.30
2018-08-17T21:11:28.849Z,19.20
2018-08-17T21:13:58.471Z,19.10
2018-08-17T21:16:28.034Z,19.10
2018-08-17T21:18:57.616Z,19.10
2018-08-17T21:21:27.363Z,19.00
2018-08-17T21:23:56.894Z,19.00
2018-08-17T21:26:26.854Z,19.00
2018-08-17T21:28:56.378Z,18.90
2018-08-17T21:31:26.214Z,18.90
2018-08-17T21:33:55.754Z,18.90
2018-08-17T21:36:25.334Z,18.80
2018-08-17T21:39:14.697Z,18.80
2018-08-17T21:41:46.673Z,18.80
2018-08-17T21:44:17.486Z,18.80
2018-08-17T21:47:05.455Z,18.70
2018-08-17T21:49:36.054Z,18.60
2018-08-17T21:52:08.565Z,18.60
2018-08-17T21:54:38.534Z,18.60
2018-08-17T21:57:08.094Z,18.50
2018-08-17T21:59:46.872Z,18.40
2018-08-17T22:02:17.533Z,18.40
2018-08-17T22:04:47.047Z,18.30
2018-08-17T22:07:22.527Z,18.30
2018-08-17T22:09:53.247Z,18.30
2018-08-17T22:12:22.842Z,18.30
2018-08-17T22:14:52.347Z,18.20
2018-08-17T22:17:36.027Z,18.20
2018-08-17T22:20:08.947Z,18.20
2018-08-17T22:22:38.569Z,18.30
2018-08-17T22:25:16.588Z,18.20
2018-08-17T22:27:47.947Z,18.20
2018-08-17T22:30:23.228Z,18.20
2018-08-17T22:32:52.849Z,18.20
2018-08-17T22:35:22.675Z,18.20
2018-08-17T22:37:52.588Z,18.10
2018-08-17T22:40:22.248Z,18.10
2018-08-17T22:42:51.888Z,18.00
2018-08-17T22:45:21.460Z,18.00
2018-08-17T22:47:50.949Z,18.00
2018-08-17T22:50:20.831Z,18.00
2018-08-17T22:52:50.368Z,18.00
2018-08-17T22:55:20.129Z,18.00
2018-08-17T22:57:49.808Z,18.10
2018-08-17T23:00:25.408Z,18.00
2018-08-17T23:02:56.089Z,18.00
2018-08-17T23:05:33.966Z,18.00
2018-08-17T23:08:03.875Z,18.00
2018-08-17T23:10:33.628Z,18.00
2018-08-17T23:13:03.248Z,18.00
2018-08-17T23:15:32.808Z,18.00
2018-08-17T23:18:02.409Z,18.00
2018-08-17T23:20:37.748Z,18.00
2018-08-17T23:23:07.708Z,17.90
2018-08-17T23:25:37.271Z,17.90
2018-08-17T23:28:07.368Z,17.90
2018-08-17T23:30:36.885Z,17.80
2018-08-17T23:33:06.847Z,17.80
2018-08-17T23:35:36.668Z,17.70
2018-08-17T23:38:06.234Z,17.80
2018-08-17T23:40:36.326Z,17.80
2018-08-17T23:43:06.111Z,17.80
2018-08-17T23:45:35.968Z,17.80
2018-08-17T23:48:06.009Z,17.70
2018-08-17T23:50:35.488Z,17.70
2018-08-17T23:53:05.400Z,17.70
2018-08-17T23:55:34.968Z,17.70
2018-08-17T23:58:05.229Z,17.70
